Time;durP1;ratioP1;P1;durP2;ratioP2;P2;SDS_P1;SDS_P2;PMS_P1;PMS_P2;Temp;Humidity;BMP_temperature;BMP_pressure;BME280_temperature;BME280_humidity;BME280_pressure;Samples;Min_cycle;Max_cycle;Signal;HPM_P1;HPM_P2
2024/03/01 00:01:50;;;;;;;18.23;11.15;;;;;;;-145.63;100.00;61273.97;5011764;28;20040;-68
2024/03/01 00:04:17;;;;;;;17.23;10.65;;;;;;;-145.63;100.00;61273.97;4999833;28;20400;-68
2024/03/01 00:06:44;;;;;;;16.65;11.15;;;;;;;-145.63;100.00;61273.97;5010002;28;20040;-67
2024/03/01 00:09:09;;;;;;;17.83;11.73;;;;;;;-145.63;100.00;61273.97;5016280;28;20065;-68
2024/03/01 00:11:35;;;;;;;18.38;11.00;;;;;;;-145.63;100.00;61273.97;5019869;28;20518;-67
2024/03/01 00:14:02;;;;;;;20.20;11.18;;;;;;;-145.63;100.00;61273.97;5035664;28;20470;-67
2024/03/01 00:16:29;;;;;;;16.35;11.32;;;;;;;-145.63;100.00;61273.97;5034073;28;20033;-68
2024/03/01 00:18:55;;;;;;;21.63;10.82;;;;;;;-145.63;100.00;61273.97;5036340;28;20025;-69
2024/03/01 00:21:21;;;;;;;19.23;10.93;;;;;;;-145.63;100.00;61273.97;5027143;28;20448;-69
2024/03/01 00:23:47;;;;;;;16.45;10.00;;;;;;;-145.63;100.00;61273.97;5012156;28;20424;-68
2024/03/01 00:26:13;;;;;;;18.13;11.30;;;;;;;-145.63;100.00;61273.97;4997072;28;20116;-68
2024/03/01 00:28:40;;;;;;;14.30;10.57;;;;;;;-145.63;100.00;61273.97;4997086;28;20039;-68
2024/03/01 00:31:05;;;;;;;17.38;9.98;;;;;;;-145.63;100.00;61273.97;5011559;28;20118;-68
2024/03/01 00:33:32;;;;;;;16.60;10.25;;;;;;;-145.63;100.00;61273.97;5008645;28;20458;-67
2024/03/01 00:35:58;;;;;;;18.38;11.32;;;;;;;-145.63;100.00;61273.97;5005193;28;20049;-66
2024/03/01 00:38:24;;;;;;;20.27;10.90;;;;;;;-145.63;100.00;61273.97;5019317;28;20663;-69
2024/03/01 00:40:50;;;;;;;20.38;10.88;;;;;;;-145.63;100.00;61273.97;5015796;28;20029;-68
2024/03/01 00:43:15;;;;;;;18.08;10.07;;;;;;;-145.63;100.00;61273.97;5014562;28;20483;-67
2024/03/01 00:45:41;;;;;;;17.13;9.93;;;;;;;-145.63;100.00;61273.97;5004296;28;20030;-67
2024/03/01 00:48:12;;;;;;;16.95;10.70;;;;;;;-145.63;100.00;61273.97;5003187;28;20049;-67
2024/03/01 00:50:39;;;;;;;16.20;10.25;;;;;;;-145.63;100.00;61273.97;5015867;28;20490;-68
2024/03/01 00:53:06;;;;;;;16.95;10.40;;;;;;;-145.63;100.00;61273.97;5015365;28;20037;-69
2024/03/01 00:55:33;;;;;;;19.88;10.65;;;;;;;-145.63;100.00;61273.97;4997033;28;20026;-68
2024/03/01 00:57:59;;;;;;;19.50;10.50;;;;;;;-145.63;100.00;61273.97;5024259;28;20069;-69
2024/03/01 01:00:26;;;;;;;20.38;10.27;;;;;;;-145.63;100.00;61273.97;5026152;28;20060;-69
2024/03/01 01:02:51;;;;;;;15.35;10.50;;;;;;;-145.63;100.00;61273.97;5011475;28;20080;-69
2024/03/01 01:05:22;;;;;;;18.83;10.95;;;;;;;-145.63;100.00;61273.97;4995549;28;20497;-69
2024/03/01 01:07:48;;;;;;;19.65;10.60;;;;;;;-145.63;100.00;61273.97;5015826;28;20462;-69
2024/03/01 01:10:15;;;;;;;19.73;10.32;;;;;;;-145.63;100.00;61273.97;4999388;28;20036;-68
2024/03/01 01:12:40;;;;;;;18.48;11.52;;;;;;;-145.63;100.00;61273.97;5007308;28;20459;-69
2024/03/01 01:15:07;;;;;;;18.70;10.63;;;;;;;-145.63;100.00;61273.97;5008312;28;20114;-69
2024/03/01 01:17:32;;;;;;;18.10;10.73;;;;;;;-145.63;100.00;61273.97;4998098;28;20034;-69
2024/03/01 01:19:59;;;;;;;20.55;10.93;;;;;;;-145.63;100.00;61273.97;5015054;28;20379;-69
2024/03/01 01:22:26;;;;;;;19.33;10.93;;;;;;;-145.63;100.00;61273.97;4997863;28;20080;-68
2024/03/01 01:24:53;;;;;;;19.60;10.27;;;;;;;-145.63;100.00;61273.97;5008796;28;20044;-67
2024/03/01 01:27:19;;;;;;;20.55;10.60;;;;;;;-145.63;100.00;61273.97;5006487;28;20397;-68
2024/03/01 01:29:45;;;;;;;16.92;10.77;;;;;;;-145.63;100.00;61273.97;4998823;28;20026;-69
2024/03/01 01:32:10;;;;;;;15.68;10.27;;;;;;;-145.63;100.00;61273.97;5013314;28;20042;-68
2024/03/01 01:34:36;;;;;;;17.90;10.88;;;;;;;-145.63;100.00;61273.97;5014599;28;20038;-70
2024/03/01 01:37:03;;;;;;;24.23;10.88;;;;;;;-145.63;100.00;61273.97;5013371;28;20485;-68
2024/03/01 01:39:30;;;;;;;18.35;10.45;;;;;;;-145.63;100.00;61273.97;5015027;28;20065;-68
2024/03/01 01:41:56;;;;;;;18.48;10.48;;;;;;;-145.63;100.00;61273.97;5013393;28;20441;-68
2024/03/01 01:44:22;;;;;;;19.55;10.63;;;;;;;-145.63;100.00;61273.97;5014492;28;20068;-68
2024/03/01 01:46:49;;;;;;;14.63;9.48;;;;;;;-145.63;100.00;61273.97;4995539;28;20030;-67
2024/03/01 01:49:25;;;;;;;18.67;10.00;;;;;;;-145.63;100.00;61273.97;5010951;28;20452;-67
2024/03/01 01:51:52;;;;;;;17.23;11.00;;;;;;;-145.63;100.00;61273.97;5007184;28;20116;-66
2024/03/01 01:54:18;;;;;;;19.92;10.50;;;;;;;-145.63;100.00;61273.97;5006581;28;20057;-67
2024/03/01 01:56:45;;;;;;;17.27;10.32;;;;;;;-145.63;100.00;61273.97;4998429;28;20022;-68
2024/03/01 01:59:13;;;;;;;20.90;10.98;;;;;;;-145.63;100.00;61273.97;5014436;28;20485;-69
2024/03/01 02:01:39;;;;;;;19.08;10.45;;;;;;;-145.63;100.00;61273.97;5008820;28;20061;-67
2024/03/01 02:04:05;;;;;;;17.83;10.15;;;;;;;-145.63;100.00;61273.97;5000191;28;20499;-68
2024/03/01 02:06:31;;;;;;;17.83;10.50;;;;;;;-145.63;100.00;61273.97;5004331;28;20043;-69
2024/03/01 02:08:57;;;;;;;17.90;10.45;;;;;;;-145.63;100.00;61273.97;5009005;28;20030;-68
2024/03/01 02:11:24;;;;;;;14.30;10.52;;;;;;;-145.63;100.00;61273.97;4994518;28;20034;-68
2024/03/01 02:13:55;;;;;;;21.55;9.95;;;;;;;-145.63;100.00;61273.97;5014090;28;20022;-67
2024/03/01 02:16:22;;;;;;;17.13;9.88;;;;;;;-145.63;100.00;61273.97;4997973;28;20468;-68
2024/03/01 02:18:50;;;;;;;16.77;10.75;;;;;;;-145.63;100.00;61273.97;5006234;28;20029;-68
2024/03/01 02:21:22;;;;;;;21.92;11.13;;;;;;;-145.63;100.00;61273.97;5004718;28;20037;-68
2024/03/01 02:23:48;;;;;;;20.10;10.73;;;;;;;-145.63;100.00;61273.97;5010559;28;20045;-68
2024/03/01 02:26:13;;;;;;;23.58;10.63;;;;;;;-145.63;100.00;61273.97;4994351;28;20034;-69
2024/03/01 02:28:44;;;;;;;17.35;11.57;;;;;;;-145.63;100.00;61273.97;5013208;28;20030;-69
2024/03/01 02:31:10;;;;;;;17.90;10.88;;;;;;;-145.63;100.00;61273.97;4998854;28;20049;-70
2024/03/01 02:33:36;;;;;;;18.30;11.23;;;;;;;-145.63;100.00;61273.97;5004699;28;20053;-71
2024/03/01 02:36:02;;;;;;;24.38;11.10;;;;;;;-145.63;100.00;61273.97;5008191;28;20042;-69
2024/03/01 02:38:28;;;;;;;18.17;11.35;;;;;;;-145.63;100.00;61273.97;4994150;28;20122;-70
2024/03/01 02:40:54;;;;;;;18.65;10.73;;;;;;;-145.63;100.00;61273.97;4994068;28;20034;-68
2024/03/01 02:43:20;;;;;;;18.17;11.20;;;;;;;-145.63;100.00;61273.97;5010120;28;20033;-68
2024/03/01 02:45:46;;;;;;;19.20;10.73;;;;;;;-145.63;100.00;61273.97;5002521;28;20026;-68
2024/03/01 02:48:12;;;;;;;20.80;12.13;;;;;;;-145.63;100.00;61273.97;5000439;28;20514;-68
2024/03/01 02:50:37;;;;;;;19.10;11.93;;;;;;;-145.63;100.00;61273.97;5013689;28;20463;-68
2024/03/01 02:53:03;;;;;;;16.90;11.35;;;;;;;-145.63;100.00;61273.97;5013392;28;20026;-69
2024/03/01 02:55:29;;;;;;;18.17;12.18;;;;;;;-145.63;100.00;61273.97;4995060;28;20472;-69
2024/03/01 02:57:55;;;;;;;20.48;12.02;;;;;;;-145.63;100.00;61273.97;5006106;28;20026;-68
2024/03/01 03:00:22;;;;;;;17.92;11.85;;;;;;;-145.63;100.00;61273.97;5008563;28;20065;-69
2024/03/01 03:02:47;;;;;;;23.77;13.27;;;;;;;-145.63;100.00;61273.97;5012953;28;20061;-67
2024/03/01 03:05:13;;;;;;;25.67;16.48;;;;;;;-145.63;100.00;61273.97;5013873;28;20065;-68
2024/03/01 03:07:40;;;;;;;21.70;14.20;;;;;;;-145.63;100.00;61273.97;4994597;28;20030;-69
2024/03/01 03:10:06;;;;;;;22.23;14.20;;;;;;;-145.63;100.00;61273.97;5007630;28;20120;-68
2024/03/01 03:12:33;;;;;;;18.38;12.95;;;;;;;-145.63;100.00;61273.97;5004281;28;20066;-68
2024/03/01 03:15:07;;;;;;;29.23;17.90;;;;;;;-145.63;100.00;61273.97;4980916;28;20033;-66
2024/03/01 03:17:36;;;;;;;26.48;18.25;;;;;;;-145.63;100.00;61273.97;5012906;28;20048;-68
2024/03/01 03:20:12;;;;;;;24.08;16.27;;;;;;;-145.63;100.00;61273.97;4993750;28;20125;-67
2024/03/01 03:22:38;;;;;;;27.17;15.23;;;;;;;-145.63;100.00;61273.97;5011875;28;20066;-67
2024/03/01 03:25:05;;;;;;;20.20;14.73;;;;;;;-145.63;100.00;61273.97;4999147;28;20055;-68
2024/03/01 03:27:32;;;;;;;25.10;15.27;;;;;;;-145.63;100.00;61273.97;5002633;28;20026;-67
2024/03/01 03:29:58;;;;;;;23.77;15.38;;;;;;;-145.63;100.00;61273.97;5012008;28;20113;-67
2024/03/01 03:32:24;;;;;;;27.30;14.90;;;;;;;-145.63;100.00;61273.97;4997261;28;20510;-68
2024/03/01 03:34:49;;;;;;;22.48;15.27;;;;;;;-145.63;100.00;61273.97;5016735;28;20045;-67
2024/03/01 03:37:15;;;;;;;23.50;14.55;;;;;;;-145.63;100.00;61273.97;5002006;28;20057;-67
2024/03/01 03:39:41;;;;;;;26.35;15.88;;;;;;;-145.63;100.00;61273.97;4997239;28;20033;-68
2024/03/01 03:42:06;;;;;;;25.23;14.07;;;;;;;-145.63;100.00;61273.97;5002815;28;20057;-67
2024/03/01 03:44:32;;;;;;;21.85;14.35;;;;;;;-145.63;100.00;61273.97;5016751;28;20029;-68
2024/03/01 03:46:58;;;;;;;23.08;13.18;;;;;;;-145.63;100.00;61273.97;4997175;28;20436;-68
2024/03/01 03:49:24;;;;;;;23.75;13.65;;;;;;;-145.63;100.00;61273.97;4997466;28;20125;-69
2024/03/01 03:51:49;;;;;;;25.42;13.18;;;;;;;-145.63;100.00;61273.97;5006969;28;20105;-69
2024/03/01 03:54:17;;;;;;;26.40;13.70;;;;;;;-145.63;100.00;61273.97;5010680;28;20465;-68
2024/03/01 03:56:43;;;;;;;23.02;12.52;;;;;;;-145.63;100.00;61273.97;4999402;28;20464;-67
2024/03/01 03:59:09;;;;;;;20.17;11.70;;;;;;;-145.63;100.00;61273.97;5016398;28;20038;-68
2024/03/01 04:01:34;;;;;;;18.30;11.93;;;;;;;-145.63;100.00;61273.97;5011759;28;20400;-69
2024/03/01 04:04:01;;;;;;;17.17;12.00;;;;;;;-145.63;100.00;61273.97;5004104;28;20042;-69
2024/03/01 04:06:27;;;;;;;17.70;10.88;;;;;;;-145.63;100.00;61273.97;5005194;28;20034;-69
2024/03/01 04:08:52;;;;;;;23.75;13.57;;;;;;;-145.63;100.00;61273.97;5013179;28;20038;-68
2024/03/01 04:11:18;;;;;;;22.75;12.80;;;;;;;-145.63;100.00;61273.97;4997128;28;20384;-68
2024/03/01 04:13:44;;;;;;;21.95;12.95;;;;;;;-145.63;100.00;61273.97;5015139;28;20104;-69
2024/03/01 04:16:09;;;;;;;22.58;13.25;;;;;;;-145.63;100.00;61273.97;5002519;28;20049;-69
2024/03/01 04:18:37;;;;;;;21.45;13.73;;;;;;;-145.63;100.00;61273.97;5006333;28;20108;-69
2024/03/01 04:21:07;;;;;;;29.05;15.52;;;;;;;-145.63;100.00;61273.97;5016429;28;20029;-69
2024/03/01 04:23:32;;;;;;;28.65;15.43;;;;;;;-145.63;100.00;61273.97;5015228;28;20377;-68
2024/03/01 04:25:58;;;;;;;23.90;15.38;;;;;;;-145.63;100.00;61273.97;5016494;28;20113;-68
2024/03/01 04:28:27;;;;;;;25.75;15.48;;;;;;;-145.63;100.00;61273.97;5016360;28;20029;-69
2024/03/01 04:30:54;;;;;;;27.10;15.63;;;;;;;-145.63;100.00;61273.97;5026081;28;20364;-68
2024/03/01 04:33:20;;;;;;;24.38;14.93;;;;;;;-145.63;100.00;61273.97;5027223;28;20045;-68
2024/03/01 04:35:46;;;;;;;23.95;14.57;;;;;;;-145.63;100.00;61273.97;5013678;28;20137;-69
2024/03/01 04:38:12;;;;;;;21.08;13.63;;;;;;;-145.63;100.00;61273.97;4996614;28;20066;-68
2024/03/01 04:40:38;;;;;;;25.38;14.48;;;;;;;-145.63;100.00;61273.97;5013584;28;20034;-68
2024/03/01 04:43:05;;;;;;;27.40;15.50;;;;;;;-145.63;100.00;61273.97;5015475;28;20088;-68
2024/03/01 04:45:32;;;;;;;26.60;14.95;;;;;;;-145.63;100.00;61273.97;5008764;28;20066;-71
2024/03/01 04:47:57;;;;;;;22.83;14.50;;;;;;;-145.63;100.00;61273.97;4999532;28;20030;-68
2024/03/01 04:50:23;;;;;;;24.10;14.25;;;;;;;-145.63;100.00;61273.97;5015696;28;20030;-68
2024/03/01 04:52:49;;;;;;;22.92;14.55;;;;;;;-145.63;100.00;61273.97;5015516;28;20456;-69
2024/03/01 04:55:14;;;;;;;24.02;14.43;;;;;;;-145.63;100.00;61273.97;5008030;28;20030;-69
2024/03/01 04:57:40;;;;;;;23.65;13.85;;;;;;;-145.63;100.00;61273.97;5015621;28;20432;-69
2024/03/01 05:00:12;;;;;;;22.20;14.05;;;;;;;-145.63;100.00;61273.97;5011088;28;20038;-68
2024/03/01 05:02:42;;;;;;;21.38;14.02;;;;;;;-145.63;100.00;61273.97;5013740;28;20109;-69
2024/03/01 05:05:16;;;;;;;23.23;13.68;;;;;;;-145.63;100.00;61273.97;5010660;28;20384;-69
2024/03/01 05:07:42;;;;;;;19.63;13.38;;;;;;;-145.63;100.00;61273.97;5015636;28;20426;-67
2024/03/01 05:10:11;;;;;;;25.08;14.20;;;;;;;-145.63;100.00;61273.97;5002619;28;20030;-67
2024/03/01 05:12:38;;;;;;;20.70;13.88;;;;;;;-145.63;100.00;61273.97;5003945;28;20127;-67
2024/03/01 05:15:12;;;;;;;23.17;13.80;;;;;;;-145.63;100.00;61273.97;5010794;28;20088;-68
2024/03/01 05:17:40;;;;;;;24.52;14.15;;;;;;;-145.63;100.00;61273.97;4996420;28;20049;-68
2024/03/01 05:20:10;;;;;;;26.67;13.57;;;;;;;-145.63;100.00;61273.97;5014649;28;20018;-67
2024/03/01 05:22:42;;;;;;;19.60;13.25;;;;;;;-145.63;100.00;61273.97;5012755;28;20344;-68
2024/03/01 05:25:15;;;;;;;19.40;13.82;;;;;;;-145.63;100.00;61273.97;5014270;28;20052;-69
2024/03/01 05:27:46;;;;;;;25.25;14.15;;;;;;;-145.63;100.00;61273.97;5008264;28;20038;-68
2024/03/01 05:30:18;;;;;;;25.10;13.30;;;;;;;-145.63;100.00;61273.97;5013281;28;20041;-69
2024/03/01 05:32:45;;;;;;;18.30;12.77;;;;;;;-145.63;100.00;61273.97;5013255;28;20467;-68
2024/03/01 05:35:13;;;;;;;22.05;13.80;;;;;;;-145.63;100.00;61273.97;4995177;28;20344;-70
2024/03/01 05:37:39;;;;;;;25.15;14.80;;;;;;;-145.63;100.00;61273.97;5012251;28;20038;-68
2024/03/01 05:40:05;;;;;;;27.95;14.88;;;;;;;-145.63;100.00;61273.97;5014378;28;20021;-69
2024/03/01 05:42:32;;;;;;;26.50;14.93;;;;;;;-145.63;100.00;61273.97;5014608;28;20037;-69
2024/03/01 05:44:58;;;;;;;26.98;14.18;;;;;;;-145.63;100.00;61273.97;5010905;28;20034;-68
2024/03/01 05:47:23;;;;;;;25.98;14.85;;;;;;;-145.63;100.00;61273.97;4995188;28;20041;-68
2024/03/01 05:49:49;;;;;;;26.02;14.88;;;;;;;-145.63;100.00;61273.97;5012943;28;20075;-73
2024/03/01 05:52:16;;;;;;;22.75;13.48;;;;;;;-145.63;100.00;61273.97;5013532;28;20032;-71
2024/03/01 05:54:42;;;;;;;25.00;14.02;;;;;;;-145.63;100.00;61273.97;5005133;28;20035;-69
2024/03/01 05:57:08;;;;;;;24.70;14.30;;;;;;;-145.63;100.00;61273.97;4999398;28;20038;-69
2024/03/01 05:59:34;;;;;;;22.05;13.52;;;;;;;-145.63;100.00;61273.97;5014916;28;20034;-68
2024/03/01 06:01:59;;;;;;;23.80;14.23;;;;;;;-145.63;100.00;61273.97;5010238;28;20498;-68
2024/03/01 06:04:25;;;;;;;27.27;15.05;;;;;;;-145.63;100.00;61273.97;5012266;28;20146;-67
2024/03/01 06:06:51;;;;;;;26.60;14.10;;;;;;;-145.63;100.00;61273.97;5012630;28;20041;-69
2024/03/01 06:09:17;;;;;;;24.15;13.70;;;;;;;-145.63;100.00;61273.97;5006067;28;20472;-69
2024/03/01 06:11:43;;;;;;;23.98;14.63;;;;;;;-145.63;100.00;61273.97;5013514;28;20030;-68
2024/03/01 06:14:10;;;;;;;23.17;13.65;;;;;;;-145.63;100.00;61273.97;5014343;28;20060;-68
2024/03/01 06:16:37;;;;;;;30.13;15.20;;;;;;;-145.63;100.00;61273.97;4997793;28;20041;-69
2024/03/01 06:19:03;;;;;;;29.95;14.90;;;;;;;-145.63;100.00;61273.97;5005799;28;20030;-69
2024/03/01 06:21:29;;;;;;;25.73;14.55;;;;;;;-145.63;100.00;61273.97;5006952;28;20459;-69
2024/03/01 06:23:54;;;;;;;21.73;13.55;;;;;;;-145.63;100.00;61273.97;4996600;28;20049;-68
2024/03/01 06:26:20;;;;;;;29.75;13.52;;;;;;;-145.63;100.00;61273.97;5014234;28;20038;-69
2024/03/01 06:28:46;;;;;;;24.08;12.52;;;;;;;-145.63;100.00;61273.97;4996369;28;20038;-69
2024/03/01 06:31:11;;;;;;;20.48;13.52;;;;;;;-145.63;100.00;61273.97;5006015;28;20065;-69
2024/03/01 06:33:40;;;;;;;18.98;13.07;;;;;;;-145.63;100.00;61273.97;5012473;28;20053;-69
2024/03/01 06:36:06;;;;;;;24.90;13.43;;;;;;;-145.63;100.00;61273.97;5008784;28;20034;-69
2024/03/01 06:38:32;;;;;;;18.17;12.77;;;;;;;-145.63;100.00;61273.97;5011843;28;20991;-69
2024/03/01 06:41:02;;;;;;;21.67;13.02;;;;;;;-145.63;100.00;61273.97;5009684;28;20030;-68
2024/03/01 06:43:28;;;;;;;23.52;13.52;;;;;;;-145.63;100.00;61273.97;5028292;28;20029;-67
2024/03/01 06:45:54;;;;;;;21.92;13.63;;;;;;;-145.63;100.00;61273.97;5013894;28;20034;-68
2024/03/01 06:48:21;;;;;;;22.48;13.52;;;;;;;-145.63;100.00;61273.97;5013420;28;20359;-69
2024/03/01 06:50:47;;;;;;;25.83;13.43;;;;;;;-145.63;100.00;61273.97;5011249;28;20041;-71
2024/03/01 06:53:13;;;;;;;20.02;13.25;;;;;;;-145.63;100.00;61273.97;5002287;28;20029;-69
2024/03/01 06:55:38;;;;;;;30.67;15.82;;;;;;;-145.63;100.00;61273.97;5006144;28;20420;-69
2024/03/01 06:58:04;;;;;;;27.55;15.50;;;;;;;-145.63;100.00;61273.97;5002018;28;20045;-68
2024/03/01 07:00:31;;;;;;;25.65;14.77;;;;;;;-145.63;100.00;61273.97;4997651;28;20040;-67
2024/03/01 07:02:56;;;;;;;25.05;15.23;;;;;;;-145.63;100.00;61273.97;5011469;28;20121;-67
2024/03/01 07:05:22;;;;;;;24.02;14.52;;;;;;;-145.63;100.00;61273.97;5013336;28;20032;-68
2024/03/01 07:07:48;;;;;;;23.02;14.00;;;;;;;-145.63;100.00;61273.97;5013672;28;20411;-66
2024/03/01 07:10:13;;;;;;;19.85;14.20;;;;;;;-145.63;100.00;61273.97;5013606;28;20050;-66
2024/03/01 07:12:39;;;;;;;24.17;15.10;;;;;;;-145.63;100.00;61273.97;5005118;28;20054;-65
2024/03/01 07:15:07;;;;;;;23.55;14.38;;;;;;;-145.63;100.00;61273.97;5012387;28;20033;-66
2024/03/01 07:17:33;;;;;;;21.50;14.27;;;;;;;-145.63;100.00;61273.97;5013405;28;20125;-65
2024/03/01 07:19:59;;;;;;;29.27;15.48;;;;;;;-145.63;100.00;61273.97;5004782;28;20030;-68
2024/03/01 07:22:25;;;;;;;27.20;14.75;;;;;;;-145.63;100.00;61273.97;5011608;28;20487;-67
2024/03/01 07:24:51;;;;;;;25.40;15.00;;;;;;;-145.63;100.00;61273.97;5003544;28;20085;-66
2024/03/01 07:27:16;;;;;;;26.08;15.00;;;;;;;-145.63;100.00;61273.97;4998427;28;20038;-68
2024/03/01 07:29:42;;;;;;;27.23;15.57;;;;;;;-145.63;100.00;61273.97;5013420;28;20026;-67
2024/03/01 07:32:08;;;;;;;22.58;14.77;;;;;;;-145.63;100.00;61273.97;4993190;28;20050;-68
2024/03/01 07:34:34;;;;;;;26.65;15.27;;;;;;;-145.63;100.00;61273.97;5006734;28;20033;-66
2024/03/01 07:37:00;;;;;;;22.35;15.98;;;;;;;-145.63;100.00;61273.97;5021931;28;20060;-67
2024/03/01 07:39:27;;;;;;;25.27;16.50;;;;;;;-145.63;100.00;61273.97;5013285;28;20037;-66
2024/03/01 07:41:52;;;;;;;30.15;17.02;;;;;;;-145.63;100.00;61273.97;5013511;28;20059;-67
2024/03/01 07:44:18;;;;;;;29.70;16.10;;;;;;;-145.63;100.00;61273.97;5013296;28;20030;-67
2024/03/01 07:46:44;;;;;;;24.85;16.30;;;;;;;-145.63;100.00;61273.97;4996805;28;20072;-65
2024/03/01 07:49:10;;;;;;;22.20;15.90;;;;;;;-145.63;100.00;61273.97;5004658;28;20034;-66
2024/03/01 07:51:35;;;;;;;25.40;16.58;;;;;;;-145.63;100.00;61273.97;5011249;28;20030;-66
2024/03/01 07:54:01;;;;;;;28.85;16.42;;;;;;;-145.63;100.00;61273.97;4995500;28;20077;-67
2024/03/01 07:56:27;;;;;;;24.42;15.55;;;;;;;-145.63;100.00;61273.97;5013122;28;20050;-66
2024/03/01 07:59:03;;;;;;;25.25;15.38;;;;;;;-145.63;100.00;61273.97;5012824;28;20038;-67
2024/03/01 08:01:30;;;;;;;28.25;17.33;;;;;;;-145.63;100.00;61273.97;5012710;28;20030;-66
2024/03/01 08:03:56;;;;;;;25.20;16.08;;;;;;;-145.63;100.00;61273.97;5002632;28;20042;-67
2024/03/01 08:06:22;;;;;;;27.50;16.88;;;;;;;-145.63;100.00;61273.97;4998381;28;20466;-65
2024/03/01 08:08:51;;;;;;;25.45;16.35;;;;;;;-145.63;100.00;61273.97;5012641;28;20033;-67
2024/03/01 08:11:41;;;;;;;30.13;16.38;;;;;;;-145.63;100.00;61273.97;5012152;28;20088;-67
2024/03/01 08:14:18;;;;;;;26.83;16.77;;;;;;;-145.63;100.00;61273.97;5011836;28;20467;-67
2024/03/01 08:16:44;;;;;;;23.83;16.08;;;;;;;-145.63;100.00;61273.97;5000242;28;20044;-66
2024/03/01 08:19:13;;;;;;;29.77;16.52;;;;;;;-145.63;100.00;61273.97;5008045;28;20030;-68
2024/03/01 08:21:39;;;;;;;27.63;17.17;;;;;;;-145.63;100.00;61273.97;4991237;28;20023;-66
2024/03/01 08:24:05;;;;;;;27.17;17.90;;;;;;;-145.63;100.00;61273.97;5005565;28;20062;-66
2024/03/01 08:26:30;;;;;;;26.90;16.35;;;;;;;-145.63;100.00;61273.97;4996624;28;20030;-66
2024/03/01 08:29:00;;;;;;;27.95;17.38;;;;;;;-145.63;100.00;61273.97;5014049;28;20029;-66
2024/03/01 08:31:35;;;;;;;33.72;20.08;;;;;;;-145.63;100.00;61273.97;5014678;28;20117;-66
2024/03/01 08:34:10;;;;;;;29.52;17.60;;;;;;;-145.63;100.00;61273.97;5015830;28;20061;-67
2024/03/01 08:36:37;;;;;;;29.90;17.67;;;;;;;-145.63;100.00;61273.97;5022663;28;20037;-68
2024/03/01 08:39:06;;;;;;;26.80;18.55;;;;;;;-145.63;100.00;61273.97;5023433;28;20026;-66
2024/03/01 08:41:32;;;;;;;29.02;19.30;;;;;;;-145.63;100.00;61273.97;5015816;28;20101;-67
2024/03/01 08:43:58;;;;;;;28.42;19.23;;;;;;;-145.63;100.00;61273.97;5015461;28;20088;-67
2024/03/01 08:46:30;;;;;;;30.70;19.20;;;;;;;-145.63;100.00;61273.97;5016410;28;20030;-67
2024/03/01 08:48:56;;;;;;;;;;;;;;;-145.63;100.00;61273.97;5014861;28;20030;-65
2024/03/01 08:51:22;;;;;;;34.50;18.70;;;;;;;-145.63;100.00;61273.97;5021035;28;20262;-66
2024/03/01 08:53:58;;;;;;;33.30;18.50;;;;;;;-145.63;100.00;61273.97;5035617;28;20029;-68
2024/03/01 08:56:32;;;;;;;28.27;18.42;;;;;;;-145.63;100.00;61273.97;5016121;28;20120;-68
2024/03/01 08:58:58;;;;;;;31.55;19.60;;;;;;;-145.63;100.00;61273.97;4997729;28;20038;-67
2024/03/01 09:01:47;;;;;;;29.13;18.75;;;;;;;-145.63;100.00;61273.97;5011453;28;20037;-68
2024/03/01 09:04:29;;;;;;;31.70;18.75;;;;;;;-145.63;100.00;61273.97;5015134;28;20034;-65
2024/03/01 09:07:16;;;;;;;29.83;18.58;;;;;;;-145.63;100.00;61273.97;5004310;28;20052;-66
2024/03/01 09:09:42;;;;;;;35.70;20.85;;;;;;;-145.63;100.00;61273.97;5008068;28;20084;-67
2024/03/01 09:12:17;;;;;;;29.40;19.42;;;;;;;-145.63;100.00;61273.97;5011424;28;20045;-66
2024/03/01 09:14:43;;;;;;;36.80;20.60;;;;;;;-145.63;100.00;61273.97;5008932;28;20042;-67
2024/03/01 09:17:12;;;;;;;32.33;19.88;;;;;;;-145.63;100.00;61273.97;5015559;28;20372;-69
2024/03/01 09:19:40;;;;;;;32.97;20.25;;;;;;;-145.63;100.00;61273.97;4998943;28;20026;-65
2024/03/01 09:22:06;;;;;;;27.77;18.58;;;;;;;-145.63;100.00;61273.97;5005542;28;20045;-66
2024/03/01 09:24:37;;;;;;;29.08;18.10;;;;;;;-145.63;100.00;61273.97;5008605;28;20030;-66
2024/03/01 09:27:17;;;;;;;30.05;18.23;;;;;;;-145.63;100.00;61273.97;4996532;28;20089;-66
2024/03/01 09:29:46;;;;;;;27.02;18.40;;;;;;;-145.63;100.00;61273.97;5014599;28;20045;-67
2024/03/01 09:32:14;;;;;;;27.08;19.48;;;;;;;-145.63;100.00;61273.97;4995791;28;20057;-67
2024/03/01 09:34:41;;;;;;;27.13;19.38;;;;;;;-145.63;100.00;61273.97;5010076;28;20475;-65
2024/03/01 09:37:14;;;;;;;31.33;19.67;;;;;;;-145.63;100.00;61273.97;5014000;28;20042;-65
2024/03/01 09:39:42;;;;;;;31.80;19.88;;;;;;;-145.63;100.00;61273.97;5013475;28;20030;-64
2024/03/01 09:42:38;;;;;;;31.90;20.23;;;;;;;-145.63;100.00;61273.97;4996144;28;20364;-65
2024/03/01 09:45:30;;;;;;;26.08;19.10;;;;;;;-145.63;100.00;61273.97;5012375;28;20061;-65
2024/03/01 09:48:14;;;;;;;32.50;19.35;;;;;;;-145.63;100.00;61273.97;4996447;28;20396;-66
2024/03/01 09:50:58;;;;;;;27.45;18.55;;;;;;;-145.63;100.00;61273.97;5013366;28;20510;-65
2024/03/01 09:53:43;;;;;;;29.05;18.80;;;;;;;-145.63;100.00;61273.97;4994659;28;20037;-66
2024/03/01 09:56:31;;;;;;;31.10;18.35;;;;;;;-145.63;100.00;61273.97;5013486;28;20033;-67
2024/03/01 09:59:33;;;;;;;31.38;19.00;;;;;;;-145.63;100.00;61273.97;5031780;28;20517;-66
2024/03/01 10:02:10;;;;;;;35.72;19.17;;;;;;;-145.63;100.00;61273.97;5015864;28;20137;-66
2024/03/01 10:05:19;;;;;;;31.00;18.85;;;;;;;-145.63;100.00;61273.97;4999947;28;20045;-68
2024/03/01 10:08:11;;;;;;;29.10;19.75;;;;;;;-145.63;100.00;61273.97;5009149;28;20046;-67
2024/03/01 10:11:10;;;;;;;28.70;19.17;;;;;;;-145.63;100.00;61273.97;5003373;28;20018;-67
2024/03/01 10:14:12;;;;;;;26.63;19.13;;;;;;;-145.63;100.00;61273.97;5000286;28;20031;-65
2024/03/01 10:16:57;;;;;;;31.27;20.23;;;;;;;-145.63;100.00;61273.97;5023154;28;20033;-64
2024/03/01 10:19:23;;;;;;;28.90;18.52;;;;;;;-145.63;100.00;61273.97;5021192;28;20105;-66
2024/03/01 10:22:07;;;;;;;26.23;18.98;;;;;;;-145.63;100.00;61273.97;5006450;28;20456;-64
2024/03/01 10:24:57;;;;;;;30.55;19.30;;;;;;;-145.63;100.00;61273.97;4999834;28;20038;-64
2024/03/01 10:27:34;;;;;;;37.42;20.52;;;;;;;-145.63;100.00;61273.97;5009762;28;20109;-65
2024/03/01 10:30:12;;;;;;;28.60;20.17;;;;;;;-145.63;100.00;61273.97;4994983;28;20049;-67
2024/03/01 10:33:14;;;;;;;29.40;19.45;;;;;;;-145.63;100.00;61273.97;5013762;28;20504;-65
2024/03/01 10:36:00;;;;;;;;;;;;;;;-145.63;100.00;61273.97;4993804;28;20039;-65
2024/03/01 10:38:28;;;;;;;30.00;20.25;;;;;;;-145.63;100.00;61273.97;5008514;28;19921;-65
2024/03/01 10:40:56;;;;;;;28.13;20.20;;;;;;;-145.63;100.00;61273.97;5013607;28;20036;-67
2024/03/01 10:43:30;;;;;;;35.67;20.33;;;;;;;-145.63;100.00;61273.97;5001618;28;20368;-65
2024/03/01 10:45:58;;;;;;;34.10;20.95;;;;;;;-145.63;100.00;61273.97;4993756;28;20030;-66
2024/03/01 10:48:28;;;;;;;29.55;20.00;;;;;;;-145.63;100.00;61273.97;4996447;28;20459;-67
2024/03/01 10:51:02;;;;;;;26.00;19.20;;;;;;;-145.63;100.00;61273.97;5001756;28;20118;-68
2024/03/01 10:53:33;;;;;;;31.58;20.52;;;;;;;-145.63;100.00;61273.97;4992236;28;20376;-66
2024/03/01 10:56:08;;;;;;;29.52;19.48;;;;;;;-145.63;100.00;61273.97;5009985;28;20030;-66
2024/03/01 10:59:10;;;;;;;29.52;19.77;;;;;;;-145.63;100.00;61273.97;5013359;28;20057;-67
2024/03/01 11:02:07;;;;;;;30.17;19.17;;;;;;;-145.63;100.00;61273.97;5012156;28;20030;-67
2024/03/01 11:04:43;;;;;;;30.67;20.23;;;;;;;-145.63;100.00;61273.97;5000128;28;20041;-66